Time;durP1;ratioP1;P1;durP2;ratioP2;P2;SDS_P1;SDS_P2;PMS_P1;PMS_P2;Temp;Humidity;BMP_temperature;BMP_pressure;BME280_temperature;BME280_humidity;BME280_pressure;Samples;Min_cycle;Max_cycle;Signal;HPM_P1;HPM_P2
2023/11/22 00:01:12;;;;;;;0.32;0.10;;;;;;;10.53;66.97;100124.81;5088359;28;20073;-70
2023/11/22 00:03:39;;;;;;;3.20;0.20;;;;;;;10.48;69.90;100134.03;5087233;28;20072;-69
2023/11/22 00:06:05;;;;;;;0.32;0.10;;;;;;;10.37;71.18;100134.31;5084319;28;20654;-70
2023/11/22 00:08:30;;;;;;;4.22;0.17;;;;;;;10.47;70.29;100135.81;5085400;28;20028;-70
2023/11/22 00:10:56;;;;;;;0.93;0.25;;;;;;;10.80;66.10;100125.63;5088247;28;20024;-71
2023/11/22 00:13:22;;;;;;;2.35;0.00;;;;;;;10.99;64.99;100130.59;5089930;28;20028;-70
2023/11/22 00:15:49;;;;;;;0.55;0.22;;;;;;;11.02;64.32;100124.28;5087281;28;20036;-70
2023/11/22 00:18:14;;;;;;;1.45;0.10;;;;;;;11.00;62.90;100131.44;5086856;28;20039;-69
2023/11/22 00:20:40;;;;;;;1.05;0.20;;;;;;;11.03;64.96;100125.91;5084340;28;20235;-71
2023/11/22 00:23:05;;;;;;;1.20;0.40;;;;;;;11.03;61.96;100118.09;5086353;28;20392;-68
2023/11/22 00:25:31;;;;;;;0.63;0.10;;;;;;;11.08;63.84;100119.25;5086453;28;20020;-71
2023/11/22 00:27:56;;;;;;;0.40;0.10;;;;;;;11.06;63.49;100115.97;5087573;28;20467;-71
2023/11/22 00:30:23;;;;;;;0.50;0.10;;;;;;;10.96;64.96;100116.09;5085287;28;20039;-70
2023/11/22 00:32:48;;;;;;;0.40;0.10;;;;;;;10.96;66.14;100116.09;5087799;28;20047;-71
2023/11/22 00:35:14;;;;;;;0.93;0.10;;;;;;;10.91;65.36;100128.78;5087843;28;20036;-72
2023/11/22 00:37:40;;;;;;;1.35;0.10;;;;;;;10.83;64.91;100131.34;5086390;28;20032;-70
2023/11/22 00:40:13;;;;;;;0.77;0.10;;;;;;;10.82;64.79;100124.50;5086979;28;20032;-70
2023/11/22 00:42:39;;;;;;;0.17;0.10;;;;;;;10.79;64.24;100106.56;5088077;28;20056;-69
2023/11/22 00:45:06;;;;;;;0.90;0.10;;;;;;;10.63;66.81;100124.72;5086411;28;20030;-69
2023/11/22 00:47:34;;;;;;;0.40;0.00;;;;;;;10.83;63.25;100117.50;5084560;28;20032;-70
2023/11/22 00:50:01;;;;;;;0.73;0.10;;;;;;;10.88;64.18;100117.84;5088040;28;20065;-69
2023/11/22 00:52:27;;;;;;;0.52;0.10;;;;;;;10.92;63.42;100113.94;5085234;28;20047;-70
2023/11/22 00:54:52;;;;;;;1.33;0.20;;;;;;;10.93;66.24;100105.97;5083811;28;20031;-70
2023/11/22 00:57:18;;;;;;;2.40;0.05;;;;;;;10.74;65.70;100114.03;5087239;28;20027;-69
2023/11/22 00:59:43;;;;;;;0.73;0.10;;;;;;;10.71;65.78;100109.13;5087466;28;20042;-69
2023/11/22 01:02:09;;;;;;;0.20;0.08;;;;;;;10.69;65.28;100112.88;5085203;28;20119;-70
2023/11/22 01:04:36;;;;;;;0.20;0.10;;;;;;;10.66;65.46;100108.78;5089277;28;20109;-69
2023/11/22 01:07:04;;;;;;;0.28;0.03;;;;;;;10.79;63.07;100119.59;5088199;28;20028;-70
2023/11/22 01:09:30;;;;;;;0.88;0.10;;;;;;;10.85;64.77;100100.75;5092231;28;20154;-70
2023/11/22 01:11:55;;;;;;;0.50;0.10;;;;;;;10.83;64.10;100126.16;5088659;28;20454;-71
2023/11/22 01:14:21;;;;;;;0.25;0.10;;;;;;;10.84;63.49;100116.53;5092338;28;20123;-71
2023/11/22 01:16:47;;;;;;;0.40;0.10;;;;;;;11.00;63.14;100107.97;5093756;28;20028;-71
2023/11/22 01:19:13;;;;;;;1.85;0.10;;;;;;;11.01;61.02;100101.78;5094888;28;20016;-71
2023/11/22 01:21:38;;;;;;;0.85;0.10;;;;;;;10.98;62.87;100108.13;5090782;28;20468;-71
2023/11/22 01:24:04;;;;;;;0.30;0.10;;;;;;;10.89;62.33;100094.22;5093747;28;20543;-72
2023/11/22 01:26:30;;;;;;;0.28;0.10;;;;;;;11.10;60.01;100090.41;5089829;28;20105;-73
2023/11/22 01:28:55;;;;;;;0.32;0.10;;;;;;;11.17;60.50;100091.44;5091744;28;20032;-70
2023/11/22 01:31:21;;;;;;;1.70;0.10;;;;;;;11.18;58.65;100093.88;5089135;28;20491;-69
2023/11/22 01:33:48;;;;;;;0.63;0.00;;;;;;;11.21;60.75;100111.00;5089757;28;20028;-72
2023/11/22 01:36:15;;;;;;;0.17;0.08;;;;;;;11.08;60.99;100114.03;5087090;28;20028;-71
2023/11/22 01:38:40;;;;;;;0.28;0.10;;;;;;;11.14;60.23;100094.34;5090437;28;20058;-70
2023/11/22 01:41:06;;;;;;;0.35;0.00;;;;;;;11.18;60.35;100111.31;5091570;28;20063;-70
2023/11/22 01:43:32;;;;;;;0.13;0.00;;;;;;;11.08;62.76;100105.41;5089223;28;20032;-70
2023/11/22 01:45:58;;;;;;;0.17;0.00;;;;;;;10.94;62.25;100110.22;5090909;28;20031;-70
2023/11/22 01:48:24;;;;;;;0.20;0.03;;;;;;;10.88;63.04;100107.41;5090990;28;20052;-70
2023/11/22 01:50:49;;;;;;;0.77;0.10;;;;;;;10.85;63.27;100112.97;5089281;28;20024;-71
2023/11/22 01:53:16;;;;;;;0.40;0.10;;;;;;;10.93;62.82;100102.56;5090090;28;20032;-71
2023/11/22 01:55:43;;;;;;;0.40;0.08;;;;;;;10.98;59.92;100105.50;5089227;28;20080;-70
2023/11/22 01:58:09;;;;;;;0.10;0.00;;;;;;;11.02;63.27;100113.84;5091668;28;20031;-70
2023/11/22 02:00:51;;;;;;;0.35;0.00;;;;;;;10.98;58.83;100103.72;5090114;28;20399;-71
2023/11/22 02:03:17;;;;;;;0.15;0.00;;;;;;;11.02;62.82;100112.06;5083227;28;20032;-71
2023/11/22 02:05:44;;;;;;;1.17;0.00;;;;;;;11.06;59.23;100115.97;5085454;28;20040;-71
2023/11/22 02:08:10;;;;;;;1.38;0.10;;;;;;;11.08;60.89;100118.44;5089643;28;20031;-70
2023/11/22 02:10:39;;;;;;;0.22;0.03;;;;;;;11.06;61.07;100097.75;5089948;28;20031;-70
2023/11/22 02:13:08;;;;;;;0.15;0.00;;;;;;;11.14;60.46;100104.78;5085464;28;20032;-70
2023/11/22 02:15:37;;;;;;;0.25;0.10;;;;;;;11.02;63.12;100111.25;5089397;28;20025;-70
2023/11/22 02:18:03;;;;;;;0.10;0.00;;;;;;;11.16;58.26;100101.03;5085908;28;20024;-71
2023/11/22 02:20:30;;;;;;;2.05;0.10;;;;;;;11.17;59.73;100092.25;5089751;28;20501;-69
2023/11/22 02:22:56;;;;;;;0.20;0.00;;;;;;;11.15;58.04;100109.03;5088645;28;20058;-70
2023/11/22 02:25:22;;;;;;;0.13;0.10;;;;;;;11.07;60.34;100112.41;5089591;28;20091;-71
2023/11/22 02:27:48;;;;;;;0.20;0.03;;;;;;;11.03;61.38;100099.84;5085066;28;20135;-70
2023/11/22 02:30:14;;;;;;;1.60;0.10;;;;;;;11.06;56.65;100115.16;5088208;28;20031;-69
2023/11/22 02:32:39;;;;;;;0.50;0.10;;;;;;;11.17;58.01;100120.94;5090701;28;20031;-71
2023/11/22 02:35:07;;;;;;;0.30;0.05;;;;;;;11.21;59.26;100095.34;5090477;28;20078;-71
2023/11/22 02:37:34;;;;;;;0.55;0.08;;;;;;;11.13;59.92;100113.56;5088798;28;20035;-70
2023/11/22 02:40:06;;;;;;;0.30;0.05;;;;;;;10.99;61.78;100101.94;5087562;28;20040;-69
2023/11/22 02:42:34;;;;;;;0.60;0.00;;;;;;;10.85;60.02;100120.78;5089549;28;20089;-72
2023/11/22 02:44:59;;;;;;;0.17;0.00;;;;;;;11.02;59.69;100101.63;5089698;28;20484;-70
2023/11/22 02:47:25;;;;;;;0.20;0.00;;;;;;;11.09;59.04;100114.84;5088822;28;20039;-71
2023/11/22 02:49:50;;;;;;;0.50;0.10;;;;;;;11.07;60.43;100107.19;5089797;28;20035;-69
2023/11/22 02:52:16;;;;;;;0.20;0.10;;;;;;;10.83;63.66;100089.66;5090895;28;20028;-69
2023/11/22 02:54:47;;;;;;;0.65;0.10;;;;;;;10.54;65.27;100097.78;5088888;28;20070;-69
2023/11/22 02:57:12;;;;;;;0.28;0.00;;;;;;;10.54;62.54;100068.31;5089017;28;20051;-69
2023/11/22 02:59:44;;;;;;;0.10;0.00;;;;;;;10.78;59.33;100101.53;5089134;28;20333;-70
2023/11/22 03:02:11;;;;;;;0.45;0.05;;;;;;;10.94;60.11;100102.41;5086200;28;20039;-70
2023/11/22 03:04:37;;;;;;;0.40;0.03;;;;;;;10.95;60.23;100106.63;5087003;28;20567;-71
2023/11/22 03:07:03;;;;;;;0.75;0.15;;;;;;;11.05;59.36;100119.56;5087337;28;20119;-72
2023/11/22 03:09:28;;;;;;;0.25;0.10;;;;;;;11.15;57.19;100090.78;5089030;28;20229;-70
2023/11/22 03:11:54;;;;;;;0.88;0.10;;;;;;;11.06;58.47;100092.53;5088917;28;20036;-71
2023/11/22 03:14:19;;;;;;;0.40;0.10;;;;;;;11.03;58.48;100099.84;5088749;28;20036;-69
2023/11/22 03:16:45;;;;;;;0.20;0.00;;;;;;;10.83;60.08;100102.69;5086382;28;20074;-70
2023/11/22 03:19:13;;;;;;;0.15;0.00;;;;;;;10.83;57.64;100102.69;5089530;28;20042;-71
2023/11/22 03:21:39;;;;;;;0.30;0.08;;;;;;;10.91;58.22;100115.75;5088943;28;20036;-70
2023/11/22 03:24:05;;;;;;;0.20;0.00;;;;;;;11.02;59.70;100100.81;5088819;28;20058;-70
2023/11/22 03:26:30;;;;;;;0.30;0.10;;;;;;;10.87;59.72;100083.13;5084908;28;20158;-70
2023/11/22 03:28:56;;;;;;;0.77;0.00;;;;;;;10.79;59.83;100103.97;5088622;28;20403;-71
2023/11/22 03:31:21;;;;;;;0.25;0.00;;;;;;;11.03;57.58;100102.44;5088142;28;20039;-71
2023/11/22 03:33:47;;;;;;;1.35;0.03;;;;;;;10.96;58.89;100121.31;5089599;28;22391;-71
2023/11/22 03:36:12;;;;;;;1.45;0.00;;;;;;;10.92;58.69;100100.91;5088150;28;20020;-70
2023/11/22 03:38:39;;;;;;;0.52;0.10;;;;;;;11.05;58.71;100108.31;5088951;28;20032;-70
2023/11/22 03:41:05;;;;;;;0.10;0.00;;;;;;;10.96;59.23;100095.25;5088742;28;20020;-69
2023/11/22 03:43:30;;;;;;;0.30;0.00;;;;;;;10.94;59.49;100112.81;5088962;28;20562;-70
2023/11/22 03:45:56;;;;;;;0.17;0.00;;;;;;;10.84;59.72;100119.16;5085761;28;20039;-71
2023/11/22 03:48:23;;;;;;;0.45;0.10;;;;;;;10.97;58.22;100122.94;5090371;28;20024;-70
2023/11/22 03:50:49;;;;;;;2.17;0.10;;;;;;;10.81;58.50;100130.69;5087390;28;20024;-71
2023/11/22 03:53:15;;;;;;;0.10;0.00;;;;;;;10.70;59.68;100128.34;5089993;28;20032;-71
2023/11/22 03:55:40;;;;;;;2.17;0.20;;;;;;;10.79;58.57;100132.63;5086428;28;20042;-70
2023/11/22 03:58:06;;;;;;;0.25;0.00;;;;;;;10.86;57.76;100123.22;5088615;28;20616;-70
2023/11/22 04:00:33;;;;;;;0.75;0.10;;;;;;;10.81;59.50;100117.66;5088129;28;20024;-70
2023/11/22 04:03:01;;;;;;;0.20;0.10;;;;;;;10.74;58.81;100115.81;5089714;28;20111;-73
2023/11/22 04:05:27;;;;;;;0.82;0.10;;;;;;;10.95;56.76;100108.44;5088258;28;20043;-71
2023/11/22 04:07:53;;;;;;;0.10;0.00;;;;;;;10.83;57.88;100105.31;5087112;28;20409;-71
2023/11/22 04:10:19;;;;;;;0.00;0.00;;;;;;;10.84;57.06;100106.94;5088704;28;20043;-71
2023/11/22 04:12:45;;;;;;;0.30;0.00;;;;;;;10.83;58.38;100109.69;5087408;28;20224;-69
2023/11/22 04:15:11;;;;;;;0.20;0.00;;;;;;;10.81;59.18;100114.25;5087699;28;20028;-71
2023/11/22 04:17:37;;;;;;;0.10;0.00;;;;;;;10.82;58.40;100124.50;5087657;28;20361;-70
2023/11/22 04:20:08;;;;;;;0.20;0.08;;;;;;;11.02;56.75;100113.84;5085440;28;20051;-70
2023/11/22 04:22:34;;;;;;;0.10;0.00;;;;;;;11.10;55.23;100116.50;5088559;28;20046;-71
2023/11/22 04:25:01;;;;;;;0.10;0.00;;;;;;;10.99;57.03;100117.56;5088988;28;20122;-69
2023/11/22 04:27:26;;;;;;;0.47;0.10;;;;;;;10.83;58.73;100120.94;5085824;28;20488;-70
2023/11/22 04:29:51;;;;;;;0.08;0.00;;;;;;;10.86;56.82;100128.44;5088383;28;20039;-70
2023/11/22 04:32:17;;;;;;;0.43;0.10;;;;;;;10.88;56.15;100110.84;5087259;28;20036;-71
2023/11/22 04:34:42;;;;;;;0.45;0.10;;;;;;;10.81;57.81;100104.63;5088521;28;20028;-72
2023/11/22 04:37:09;;;;;;;0.10;0.00;;;;;;;10.79;55.98;100129.22;5088466;28;20058;-73
2023/11/22 04:39:35;;;;;;;0.10;0.00;;;;;;;10.92;57.67;100122.59;5090627;28;20035;-71
2023/11/22 04:42:00;;;;;;;0.10;0.00;;;;;;;10.93;56.86;100136.44;5090707;28;20050;-71
2023/11/22 04:44:26;;;;;;;0.10;0.00;;;;;;;11.00;56.73;100113.19;5090820;28;20031;-70
2023/11/22 04:46:51;;;;;;;0.10;0.00;;;;;;;10.84;57.11;100117.34;5089356;28;20038;-72
2023/11/22 04:49:17;;;;;;;0.30;0.00;;;;;;;10.76;58.33;100134.72;5092369;28;20048;-73
2023/11/22 04:51:45;;;;;;;0.57;0.00;;;;;;;10.87;57.51;100114.41;5088682;28;20486;-71
2023/11/22 04:54:11;;;;;;;0.15;0.00;;;;;;;10.91;56.31;100133.16;5091643;28;20041;-71
2023/11/22 04:56:36;;;;;;;0.30;0.00;;;;;;;10.86;58.24;100125.84;5084248;28;20091;-71
2023/11/22 04:59:03;;;;;;;0.13;0.00;;;;;;;10.76;58.94;100129.53;5089458;28;20044;-69
2023/11/22 05:01:32;;;;;;;0.00;0.00;;;;;;;10.61;57.93;100131.84;5083832;28;20051;-71
2023/11/22 05:03:58;;;;;;;0.03;0.00;;;;;;;10.62;58.89;100133.50;5090878;28;20691;-70
2023/11/22 05:06:26;;;;;;;0.47;0.10;;;;;;;10.58;57.91;100145.19;5089358;28;20081;-71
2023/11/22 05:08:51;;;;;;;1.95;0.08;;;;;;;10.55;59.68;100137.69;5088966;28;20032;-70
2023/11/22 05:11:17;;;;;;;1.23;0.10;;;;;;;10.52;59.86;100137.97;5090505;28;20026;-70
2023/11/22 05:13:45;;;;;;;0.10;0.00;;;;;;;10.61;59.60;100137.06;5089179;28;20475;-70
2023/11/22 05:16:11;;;;;;;0.38;0.00;;;;;;;10.65;59.18;100143.63;5090753;28;20124;-70
2023/11/22 05:18:36;;;;;;;0.80;0.10;;;;;;;10.70;58.86;100136.16;5089990;28;20190;-69
2023/11/22 05:21:03;;;;;;;0.15;0.00;;;;;;;10.76;58.84;100151.19;5094112;28;20085;-69
2023/11/22 05:23:29;;;;;;;1.63;0.08;;;;;;;10.74;59.22;100158.34;5089348;28;20044;-71
2023/11/22 05:25:56;;;;;;;0.32;0.08;;;;;;;10.69;59.56;100159.75;5089808;28;20063;-70
2023/11/22 05:28:22;;;;;;;0.10;0.00;;;;;;;10.73;58.66;100171.50;5091099;28;20127;-70
2023/11/22 05:30:48;;;;;;;1.48;0.00;;;;;;;10.83;57.45;100167.84;5090299;28;20492;-70
2023/11/22 05:33:13;;;;;;;0.10;0.00;;;;;;;10.88;57.13;100170.78;5091228;28;20036;-71
2023/11/22 05:35:39;;;;;;;0.10;0.00;;;;;;;11.12;57.32;100156.25;5090127;28;20093;-69
2023/11/22 05:38:05;;;;;;;0.00;0.00;;;;;;;11.06;57.66;100169.91;5089863;28;20533;-70
2023/11/22 05:40:30;;;;;;;0.40;0.00;;;;;;;10.91;58.48;100175.69;5090951;28;20236;-69
2023/11/22 05:42:56;;;;;;;2.30;0.00;;;;;;;10.82;56.94;100205.31;5085990;28;20106;-68
2023/11/22 05:45:21;;;;;;;0.45;0.00;;;;;;;10.89;55.56;100198.47;5089136;28;20115;-71
2023/11/22 05:47:46;;;;;;;1.63;0.00;;;;;;;10.88;58.28;100190.81;5089079;28;20055;-69
2023/11/22 05:50:12;;;;;;;0.15;0.00;;;;;;;10.95;55.97;100187.44;5086372;28;20024;-69
2023/11/22 05:52:37;;;;;;;0.10;0.00;;;;;;;11.01;55.98;100200.84;5088300;28;20171;-69
2023/11/22 05:55:03;;;;;;;0.10;0.00;;;;;;;11.10;55.92;100199.94;5091588;28;20119;-71
2023/11/22 05:57:30;;;;;;;0.32;0.00;;;;;;;11.22;55.83;100207.34;5091992;28;20040;-68
2023/11/22 05:59:56;;;;;;;0.47;0.00;;;;;;;11.12;53.75;100214.44;5091255;28;20479;-71
2023/11/22 06:02:22;;;;;;;0.10;0.00;;;;;;;11.12;57.09;100224.06;5092044;28;20145;-69
2023/11/22 06:04:47;;;;;;;0.47;0.00;;;;;;;11.18;54.00;100223.44;5091432;28;20028;-70
2023/11/22 06:07:13;;;;;;;0.40;0.05;;;;;;;11.24;55.54;100222.81;5091958;28;20089;-69
2023/11/22 06:09:38;;;;;;;0.10;0.00;;;;;;;11.19;53.43;100204.22;5091810;28;20036;-69
2023/11/22 06:12:04;;;;;;;1.38;0.00;;;;;;;11.14;55.86;100228.16;5091590;28;20040;-70
2023/11/22 06:14:29;;;;;;;0.05;0.00;;;;;;;11.05;56.81;100217.81;5091447;28;20607;-69
2023/11/22 06:16:55;;;;;;;0.32;0.00;;;;;;;11.00;57.63;100223.47;5091681;28;20383;-68
2023/11/22 06:19:20;;;;;;;0.43;0.00;;;;;;;10.86;56.94;100235.31;5092042;28;20051;-70
2023/11/22 06:21:46;;;;;;;0.40;0.08;;;;;;;10.82;57.46;100259.22;5091196;28;20479;-70
2023/11/22 06:24:15;;;;;;;1.25;0.00;;;;;;;11.03;53.75;100235.41;5091099;28;20036;-70
2023/11/22 06:26:46;;;;;;;0.00;0.00;;;;;;;11.04;57.13;100248.28;5091289;28;20036;-69
2023/11/22 06:29:11;;;;;;;0.10;0.00;;;;;;;10.88;57.30;100248.16;5090911;28;20020;-70
2023/11/22 06:31:37;;;;;;;0.55;0.00;;;;;;;11.11;55.29;100253.69;5090133;28;20176;-70
2023/11/22 06:34:02;;;;;;;0.22;0.00;;;;;;;11.14;57.50;100253.41;5091429;28;20027;-69
2023/11/22 06:36:29;;;;;;;0.50;0.05;;;;;;;10.86;57.55;100270.97;5088934;28;20036;-70
2023/11/22 06:38:55;;;;;;;0.32;0.00;;;;;;;11.02;55.99;100272.88;5091121;28;20028;-70
2023/11/22 06:41:21;;;;;;;0.00;0.00;;;;;;;11.18;53.14;100286.84;5089804;28;20032;-70
2023/11/22 06:43:50;;;;;;;0.30;0.05;;;;;;;11.05;56.95;100291.63;5089959;28;20035;-70
2023/11/22 06:46:18;;;;;;;0.10;0.00;;;;;;;11.01;56.80;100292.09;5088279;28;20483;-69
2023/11/22 06:48:44;;;;;;;2.72;0.00;;;;;;;10.88;56.83;100284.66;5090787;28;20035;-69
2023/11/22 06:51:09;;;;;;;0.10;0.00;;;;;;;10.85;56.24;100288.41;5089315;28;20028;-70
2023/11/22 06:53:35;;;;;;;0.50;0.10;;;;;;;10.84;57.40;100291.97;5088442;28;20039;-70
2023/11/22 06:56:01;;;;;;;0.70;0.10;;;;;;;10.82;56.86;100296.50;5089755;28;20396;-71
2023/11/22 06:58:27;;;;;;;0.10;0.00;;;;;;;10.71;58.33;100296.75;5087828;28;20028;-70
2023/11/22 07:00:52;;;;;;;0.45;0.00;;;;;;;10.69;56.56;100300.47;5089868;28;20036;-71
2023/11/22 07:03:18;;;;;;;0.32;0.00;;;;;;;10.76;56.29;100304.94;5086660;28;20111;-73
2023/11/22 07:05:43;;;;;;;0.20;0.00;;;;;;;10.80;57.30;100324.50;5089996;28;20491;-70
2023/11/22 07:08:10;;;;;;;0.60;0.10;;;;;;;10.79;57.13;100317.66;5089852;28;20027;-70
2023/11/22 07:10:36;;;;;;;1.17;0.03;;;;;;;10.76;57.24;100323.16;5089112;28;20027;-71
2023/11/22 07:13:02;;;;;;;0.47;0.05;;;;;;;10.85;56.56;100332.72;5089942;28;20097;-71
2023/11/22 07:15:28;;;;;;;0.30;0.10;;;;;;;10.83;55.39;100339.84;5090971;28;20039;-71
2023/11/22 07:17:54;;;;;;;3.35;0.08;;;;;;;10.82;56.52;100353.84;5083858;28;20028;-70
2023/11/22 07:20:20;;;;;;;0.13;0.00;;;;;;;10.92;57.04;100336.31;5106085;28;20040;-70
2023/11/22 07:22:46;;;;;;;0.10;0.00;;;;;;;10.84;57.62;100344.09;5089876;28;20050;-69
2023/11/22 07:25:17;;;;;;;0.35;0.08;;;;;;;10.78;56.73;100336.88;5089656;28;20563;-69
2023/11/22 07:27:47;;;;;;;0.80;0.08;;;;;;;10.77;58.08;100343.06;5090171;28;20024;-69
2023/11/22 07:30:13;;;;;;;0.20;0.00;;;;;;;10.72;57.27;100373.13;5090439;28;20031;-72
2023/11/22 07:32:40;;;;;;;0.08;0.00;;;;;;;10.81;55.61;100349.59;5089718;28;20024;-71
2023/11/22 07:35:08;;;;;;;0.10;0.00;;;;;;;11.14;55.50;100365.53;5089930;28;20047;-70
2023/11/22 07:37:35;;;;;;;1.05;0.10;;;;;;;11.07;57.10;100361.88;5090075;28;20040;-70
2023/11/22 07:40:03;;;;;;;0.30;0.00;;;;;;;10.91;58.47;100342.50;5089990;28;20122;-68
2023/11/22 07:42:29;;;;;;;0.22;0.00;;;;;;;10.82;57.33;100369.50;5089000;28;20040;-69
2023/11/22 07:44:56;;;;;;;0.20;0.00;;;;;;;10.81;57.16;100367.84;5090479;28;20028;-70
2023/11/22 07:47:24;;;;;;;0.38;0.00;;;;;;;10.88;55.42;100378.47;5089953;28;20044;-71
2023/11/22 07:49:51;;;;;;;0.50;0.00;;;;;;;10.92;57.15;100377.22;5089537;28;20402;-69
2023/11/22 07:52:17;;;;;;;0.08;0.00;;;;;;;10.93;57.15;100371.03;5090247;28;20024;-69
2023/11/22 07:54:42;;;;;;;0.00;0.00;;;;;;;10.91;57.73;100394.63;5087218;28;20107;-69
2023/11/22 07:57:08;;;;;;;0.17;0.08;;;;;;;10.92;56.62;100375.44;5089970;28;20178;-69
2023/11/22 07:59:33;;;;;;;0.50;0.00;;;;;;;11.05;54.61;100387.28;5088777;28;20081;-69
2023/11/22 08:02:01;;;;;;;0.28;0.00;;;;;;;11.46;52.27;100389.25;5089530;28;20535;-69
2023/11/22 08:04:28;;;;;;;0.90;0.00;;;;;;;11.69;54.22;100389.56;5090338;28;20479;-68
2023/11/22 08:06:56;;;;;;;0.20;0.03;;;;;;;11.73;54.51;100397.91;5089119;28;20036;-68
2023/11/22 08:09:23;;;;;;;0.20;0.00;;;;;;;11.67;53.79;100401.13;5089687;28;20115;-69
2023/11/22 08:11:48;;;;;;;0.03;0.00;;;;;;;11.56;54.39;100410.84;5089165;28;20036;-69
2023/11/22 08:14:15;;;;;;;0.30;0.00;;;;;;;11.47;55.03;100414.34;5092276;28;20024;-69
2023/11/22 08:16:42;;;;;;;0.98;0.00;;;;;;;11.47;54.46;100422.19;5093734;28;20032;-70
2023/11/22 08:19:09;;;;;;;0.10;0.00;;;;;;;11.50;53.77;100421.06;5093944;28;20032;-72
2023/11/22 08:21:36;;;;;;;0.10;0.00;;;;;;;11.56;53.20;100428.28;5093942;28;20040;-72
2023/11/22 08:24:02;;;;;;;0.10;0.00;;;;;;;11.61;52.42;100415.59;5093909;28;20044;-69
2023/11/22 08:26:28;;;;;;;0.30;0.00;;;;;;;11.62;53.88;100438.94;5093688;28;20043;-69
2023/11/22 08:28:54;;;;;;;0.35;0.10;;;;;;;11.63;53.14;100431.94;5093891;28;20036;-69
2023/11/22 08:31:20;;;;;;;0.20;0.00;;;;;;;11.62;52.79;100451.16;5093731;28;20032;-72
2023/11/22 08:33:45;;;;;;;0.70;0.00;;;;;;;11.68;53.22;100445.34;5093518;28;20081;-71
2023/11/22 08:36:11;;;;;;;1.17;0.08;;;;;;;11.70;52.70;100439.97;5093827;28;20040;-71
2023/11/22 08:38:40;;;;;;;0.35;0.10;;;;;;;11.71;54.33;100432.00;5093404;28;20035;-70
2023/11/22 08:41:07;;;;;;;0.20;0.08;;;;;;;11.66;53.09;100451.69;5093695;28;20028;-71
2023/11/22 08:43:33;;;;;;;0.35;0.03;;;;;;;11.63;54.03;100443.19;5093320;28;20028;-71
2023/11/22 08:45:59;;;;;;;0.10;0.00;;;;;;;11.67;55.04;100458.56;5093830;28;20399;-72
2023/11/22 08:48:24;;;;;;;0.50;0.00;;;;;;;11.71;52.54;100452.06;5093447;28;20035;-71
2023/11/22 08:50:50;;;;;;;0.30;0.00;;;;;;;11.77;53.81;100443.66;5093355;28;20111;-73
2023/11/22 08:53:18;;;;;;;0.15;0.00;;;;;;;11.79;53.12;100465.19;5093493;28;20533;-71
2023/11/22 08:55:44;;;;;;;0.00;0.00;;;;;;;11.80;53.87;100443.34;5092964;28;20043;-70
2023/11/22 08:58:12;;;;;;;1.67;0.10;;;;;;;11.82;53.22;100449.22;5093504;28;20101;-70
2023/11/22 09:00:37;;;;;;;0.20;0.00;;;;;;;11.86;54.81;100453.97;5092436;28;20032;-70
2023/11/22 09:03:03;;;;;;;0.90;0.00;;;;;;;11.90;53.99;100457.91;5093617;28;20032;-70
2023/11/22 09:05:29;;;;;;;0.15;0.03;;;;;;;11.95;52.68;100475.75;5092677;28;20036;-71
2023/11/22 09:07:55;;;;;;;0.10;0.00;;;;;;;11.98;54.18;100467.59;5093169;28;20040;-70
2023/11/22 09:10:21;;;;;;;0.47;0.00;;;;;;;11.98;53.43;100451.94;5092933;28;20043;-69
2023/11/22 09:12:47;;;;;;;0.50;0.08;;;;;;;12.02;54.79;100455.88;5092006;28;20036;-69
2023/11/22 09:15:16;;;;;;;0.25;0.10;;;;;;;12.03;53.81;100467.97;5093270;28;20100;-69
2023/11/22 09:17:43;;;;;;;0.10;0.00;;;;;;;12.10;53.80;100458.53;5092464;28;20510;-69
2023/11/22 09:20:18;;;;;;;0.10;0.00;;;;;;;12.21;53.00;100478.38;5093170;28;20036;-72
2023/11/22 09:22:47;;;;;;;0.20;0.00;;;;;;;12.16;53.13;100463.16;5092568;28;20036;-72
2023/11/22 09:25:24;;;;;;;0.57;0.00;;;;;;;12.16;52.07;100478.81;5092751;28;20063;-70
2023/11/22 09:27:53;;;;;;;1.00;0.10;;;;;;;12.30;55.00;100487.84;5092323;28;20076;-70
2023/11/22 09:30:32;;;;;;;0.10;0.00;;;;;;;12.43;55.67;100492.66;5092852;28;20610;-70
2023/11/22 09:33:03;;;;;;;0.20;0.00;;;;;;;12.49;55.13;100492.03;5093075;28;20035;-70
2023/11/22 09:35:31;;;;;;;0.00;0.00;;;;;;;12.56;54.90;100482.63;5092586;28;20387;-71
2023/11/22 09:38:01;;;;;;;0.00;0.00;;;;;;;12.57;52.45;100479.03;5092578;28;20028;-71
2023/11/22 09:40:28;;;;;;;0.40;0.03;;;;;;;12.63;51.01;100494.91;5092787;28;20087;-73
2023/11/22 09:42:57;;;;;;;0.20;0.00;;;;;;;12.69;53.73;100488.22;5092165;28;20511;-71
2023/11/22 09:45:25;;;;;;;0.20;0.00;;;;;;;12.80;53.81;100505.41;5092738;28;20036;-71
2023/11/22 09:47:51;;;;;;;0.10;0.00;;;;;;;12.82;53.63;100491.19;5073944;28;20032;-69
2023/11/22 09:50:41;;;;;;;0.17;0.00;;;;;;;12.72;52.46;100497.56;5092736;28;20028;-70
2023/11/22 09:53:25;;;;;;;0.47;0.00;;;;;;;12.71;51.13;100515.03;5091309;28;20036;-72
2023/11/22 09:55:52;;;;;;;0.00;0.00;;;;;;;12.77;52.05;100495.25;5091704;28;20031;-70
2023/11/22 09:58:19;;;;;;;0.10;0.00;;;;;;;12.76;54.41;100520.59;5092376;28;20501;-70
2023/11/22 10:00:47;;;;;;;0.10;0.00;;;;;;;12.77;54.18;100511.75;5091849;28;20033;-70
2023/11/22 10:03:14;;;;;;;0.32;0.00;;;;;;;12.79;53.36;100524.69;5087577;28;20471;-70
2023/11/22 10:05:42;;;;;;;8.25;0.55;;;;;;;12.78;54.30;100512.56;5091751;28;20040;-70
2023/11/22 10:08:09;;;;;;;0.17;0.00;;;;;;;12.73;52.30;100513.09;5091905;28;20052;-70
2023/11/22 10:10:36;;;;;;;0.20;0.00;;;;;;;12.82;52.34;100524.38;5091824;28;20074;-74
2023/11/22 10:13:03;;;;;;;0.03;0.00;;;;;;;12.76;53.42;100531.03;5090463;28;20432;-71
2023/11/22 10:15:29;;;;;;;0.43;0.00;;;;;;;12.62;53.85;100516.78;5091754;28;20039;-69
2023/11/22 10:17:56;;;;;;;0.10;0.00;;;;;;;12.58;51.93;100535.53;5091695;28;20028;-71
2023/11/22 10:20:46;;;;;;;0.50;0.10;;;;;;;12.62;52.68;100552.56;5092035;28;20043;-73
2023/11/22 10:23:16;;;;;;;0.00;0.00;;;;;;;12.71;51.55;100538.56;5090826;28;20105;-72
2023/11/22 10:25:53;;;;;;;0.50;0.00;;;;;;;12.81;50.51;100539.22;5091634;28;20043;-70
2023/11/22 10:28:25;;;;;;;0.10;0.00;;;;;;;12.87;51.68;100530.75;5091902;28;20384;-68
2023/11/22 10:30:54;;;;;;;0.17;0.00;;;;;;;12.86;50.97;100542.19;5091146;28;20135;-71
2023/11/22 10:33:22;;;;;;;0.38;0.00;;;;;;;12.83;53.31;100547.75;5091715;28;20111;-70
2023/11/22 10:35:51;;;;;;;0.00;0.00;;;;;;;12.81;53.17;100544.47;5090769;28;20036;-70
2023/11/22 10:38:20;;;;;;;1.75;0.00;;;;;;;12.81;53.20;100536.63;5091234;28;20036;-70
2023/11/22 10:40:47;;;;;;;0.03;0.00;;;;;;;12.87;52.75;100548.25;5091184;28;20035;-71
2023/11/22 10:43:16;;;;;;;0.17;0.00;;;;;;;12.82;55.07;100542.66;5091424;28;20067;-70
2023/11/22 10:45:46;;;;;;;0.00;0.00;;;;;;;12.76;53.59;100549.34;5091224;28;20032;-70
2023/11/22 10:48:15;;;;;;;0.30;0.00;;;;;;;12.84;54.38;100553.78;5092027;28;20036;-70
2023/11/22 10:50:44;;;;;;;0.00;0.00;;;;;;;12.76;54.16;100566.84;5091104;28;20058;-69
2023/11/22 10:53:15;;;;;;;0.00;0.00;;;;;;;12.73;54.35;100562.75;5091283;28;20553;-69
2023/11/22 10:55:57;;;;;;;0.20;0.00;;;;;;;12.80;53.57;100566.34;5089652;28;20034;-70
2023/11/22 10:58:25;;;;;;;0.10;0.00;;;;;;;12.82;54.25;100581.88;5091096;28;20455;-71
2023/11/22 11:00:51;;;;;;;0.55;0.00;;;;;;;12.96;53.35;100565.63;5090969;28;20040;-70
2023/11/22 11:03:21;;;;;;;0.55;0.10;;;;;;;13.05;52.05;100569.09;5091236;28;20586;-69
2023/11/22 11:06:05;;;;;;;0.15;0.00;;;;;;;12.99;51.35;100593.25;5090015;28;20527;-71
2023/11/22 11:08:33;;;;;;;0.30;0.00;;;;;;;13.00;53.18;100576.59;5090394;28;20032;-70
2023/11/22 11:11:00;;;;;;;0.25;0.00;;;;;;;12.93;54.19;100582.44;5091111;28;20503;-70
2023/11/22 11:13:27;;;;;;;0.20;0.00;;;;;;;12.95;54.60;100592.75;5090851;28;20036;-70
2023/11/22 11:15:53;;;;;;;0.10;0.00;;;;;;;13.03;54.86;100599.81;5100992;28;20027;-71
2023/11/22 11:18:20;;;;;;;0.20;0.00;;;;;;;13.08;52.89;100605.38;5092821;28;20028;-71
2023/11/22 11:20:53;;;;;;;1.27;0.00;;;;;;;13.05;51.80;100597.84;5090322;28;20043;-72
2023/11/22 11:23:28;;;;;;;0.10;0.00;;;;;;;12.99;52.46;100615.00;5091206;28;20063;-71